EXS300T EGCC-EGPK
Flight info
| Callsign | EXS300T |
|---|---|
| Flight time | 0h 31m |
| Altitude | 24000 |
| Route | POL N601 RIBEL DCT ASLIB |
| Aircraft | A321/M-SDE3FGHIRWY/LB1 |
Departure
| Time | 2026-04-23 17:14 |
|---|---|
| Airport | Manchester Airport (EGCC) |
Arrival
| Time | 2026-04-23 17:45 |
|---|---|
| Airport | Glasgow Prestwick Airport (EGPK) |
| Time | Latitude | Longitude | Altitude | Speed | Heading |
|---|---|---|---|---|---|
| 2026-04-23 16:44 | 53.35980 | -2.27397 | 256 ft | 0 kts | 275° |
| 2026-04-23 17:01 | 53.35979 | -2.27367 | 255 ft | 4 kts | 265° |
| 2026-04-23 17:02 | 53.35983 | -2.27337 | 255 ft | 4 kts | 235° |
| 2026-04-23 17:02 | 53.35998 | -2.27319 | 255 ft | 2 kts | 179° |
| 2026-04-23 17:02 | 53.35976 | -2.27319 | 255 ft | 3 kts | 179° |
| 2026-04-23 17:02 | 53.35973 | -2.27319 | 255 ft | 0 kts | 179° |
| 2026-04-23 17:08 | 53.35949 | -2.27319 | 255 ft | 10 kts | 179° |
| 2026-04-23 17:08 | 53.35863 | -2.27316 | 255 ft | 13 kts | 178° |
| 2026-04-23 17:09 | 53.35791 | -2.27332 | 255 ft | 2 kts | 205° |
| 2026-04-23 17:09 | 53.35778 | -2.27348 | 255 ft | 3 kts | 220° |
| 2026-04-23 17:09 | 53.35739 | -2.27420 | 255 ft | 11 kts | 231° |
| 2026-04-23 17:09 | 53.35675 | -2.27551 | 248 ft | 18 kts | 231° |
| 2026-04-23 17:10 | 53.35611 | -2.27668 | 244 ft | 19 kts | 226° |
| 2026-04-23 17:10 | 53.35525 | -2.27814 | 238 ft | 17 kts | 223° |
| 2026-04-23 17:10 | 53.35451 | -2.27928 | 239 ft | 16 kts | 224° |
| 2026-04-23 17:10 | 53.35378 | -2.28047 | 237 ft | 16 kts | 224° |
| 2026-04-23 17:11 | 53.35318 | -2.28144 | 238 ft | 15 kts | 224° |
| 2026-04-23 17:11 | 53.35251 | -2.28260 | 232 ft | 8 kts | 227° |
| 2026-04-23 17:11 | 53.35174 | -2.28416 | 229 ft | 22 kts | 231° |
| 2026-04-23 17:11 | 53.35092 | -2.28589 | 229 ft | 17 kts | 232° |
| 2026-04-23 17:12 | 53.35039 | -2.28694 | 229 ft | 5 kts | 228° |
| 2026-04-23 17:12 | 53.35022 | -2.28725 | 228 ft | 0 kts | 227° |
| 2026-04-23 17:12 | 53.34966 | -2.28734 | 228 ft | 12 kts | 155° |
| 2026-04-23 17:12 | 53.34894 | -2.28643 | 228 ft | 10 kts | 139° |
| 2026-04-23 17:13 | 53.34885 | -2.28629 | 229 ft | 4 kts | 139° |
| 2026-04-23 17:13 | 53.34886 | -2.28512 | 231 ft | 9 kts | 54° |
| 2026-04-23 17:13 | 53.35134 | -2.27999 | 235 ft | 118 kts | 51° |
| 2026-04-23 17:13 | 53.35829 | -2.26585 | 405 ft | 194 kts | 51° |
| 2026-04-23 17:14 | 53.36768 | -2.24669 | 1034 ft | 232 kts | 52° |
| 2026-04-23 17:14 | 53.37768 | -2.22541 | 1793 ft | 237 kts | 55° |
| 2026-04-23 17:14 | 53.38775 | -2.20395 | 2429 ft | 249 kts | 55° |
| 2026-04-23 17:14 | 53.39847 | -2.18061 | 3196 ft | 273 kts | 54° |
| 2026-04-23 17:15 | 53.41039 | -2.15437 | 4137 ft | 292 kts | 55° |
| 2026-04-23 17:15 | 53.42285 | -2.12698 | 4770 ft | 304 kts | 55° |
| 2026-04-23 17:15 | 53.43684 | -2.09975 | 4961 ft | 325 kts | 42° |
| 2026-04-23 17:15 | 53.45794 | -2.08235 | 5024 ft | 349 kts | 14° |
| 2026-04-23 17:16 | 53.48212 | -2.08115 | 5055 ft | 356 kts | 351° |
| 2026-04-23 17:16 | 53.50657 | -2.08993 | 6121 ft | 360 kts | 348° |
| 2026-04-23 17:16 | 53.53153 | -2.09792 | 7345 ft | 364 kts | 354° |
| 2026-04-23 17:16 | 53.55660 | -2.09999 | 8454 ft | 368 kts | 358° |
| 2026-04-23 17:17 | 53.58269 | -2.10061 | 9668 ft | 381 kts | 359° |
| 2026-04-23 17:17 | 53.60967 | -2.10071 | 10752 ft | 397 kts | 359° |
| 2026-04-23 17:17 | 53.62849 | -2.10075 | 11487 ft | 404 kts | 359° |
| 2026-04-23 17:17 | 53.66648 | -2.10105 | 13017 ft | 414 kts | 359° |
| 2026-04-23 17:18 | 53.72506 | -2.10256 | 15145 ft | 426 kts | 356° |
| 2026-04-23 17:18 | 53.75435 | -2.11080 | 16119 ft | 429 kts | 341° |
| 2026-04-23 17:18 | 53.78205 | -2.12884 | 17006 ft | 435 kts | 336° |
| 2026-04-23 17:19 | 53.81012 | -2.14837 | 17892 ft | 441 kts | 336° |
| 2026-04-23 17:19 | 53.83880 | -2.16822 | 18724 ft | 448 kts | 338° |
| 2026-04-23 17:19 | 53.86780 | -2.18810 | 19429 ft | 453 kts | 338° |
| 2026-04-23 17:19 | 53.89716 | -2.20815 | 20233 ft | 455 kts | 338° |
| 2026-04-23 17:20 | 53.92653 | -2.22813 | 21075 ft | 456 kts | 339° |
| 2026-04-23 17:20 | 53.98559 | -2.26841 | 22616 ft | 458 kts | 339° |
| 2026-04-23 17:21 | 54.04362 | -2.31483 | 23899 ft | 465 kts | 332° |
| 2026-04-23 17:21 | 54.07191 | -2.34138 | 24294 ft | 467 kts | 332° |
| 2026-04-23 17:21 | 54.12876 | -2.39497 | 24442 ft | 466 kts | 333° |
| 2026-04-23 17:22 | 54.15717 | -2.42168 | 24447 ft | 466 kts | 333° |
| 2026-04-23 17:22 | 54.21387 | -2.47560 | 24444 ft | 466 kts | 332° |
| 2026-04-23 17:23 | 54.27062 | -2.52910 | 24445 ft | 468 kts | 332° |
| 2026-04-23 17:23 | 54.29910 | -2.55592 | 24212 ft | 463 kts | 332° |
| 2026-04-23 17:23 | 54.35473 | -2.60858 | 22176 ft | 451 kts | 332° |
| 2026-04-23 17:24 | 54.38195 | -2.63451 | 21187 ft | 446 kts | 332° |
| 2026-04-23 17:24 | 54.40831 | -2.65967 | 20701 ft | 447 kts | 331° |
| 2026-04-23 17:24 | 54.46376 | -2.71267 | 20436 ft | 451 kts | 331° |
| 2026-04-23 17:25 | 54.51510 | -2.77288 | 20441 ft | 453 kts | 313° |
| 2026-04-23 17:25 | 54.53525 | -2.81540 | 20438 ft | 453 kts | 308° |
| 2026-04-23 17:26 | 54.57379 | -2.90063 | 20439 ft | 453 kts | 308° |
| 2026-04-23 17:26 | 54.61230 | -2.98631 | 20440 ft | 453 kts | 308° |
| 2026-04-23 17:27 | 54.65062 | -3.07179 | 19632 ft | 443 kts | 308° |
| 2026-04-23 17:27 | 54.66938 | -3.11379 | 18954 ft | 441 kts | 307° |
| 2026-04-23 17:27 | 54.68816 | -3.15581 | 18871 ft | 443 kts | 307° |
| 2026-04-23 17:27 | 54.70700 | -3.19801 | 18805 ft | 444 kts | 307° |
| 2026-04-23 17:28 | 54.72584 | -3.24025 | 18729 ft | 444 kts | 307° |
| 2026-04-23 17:28 | 54.74470 | -3.28263 | 18672 ft | 445 kts | 307° |
| 2026-04-23 17:28 | 54.76358 | -3.32512 | 18575 ft | 445 kts | 307° |
| 2026-04-23 17:28 | 54.78243 | -3.36762 | 18492 ft | 444 kts | 307° |
| 2026-04-23 17:29 | 54.80117 | -3.40995 | 18416 ft | 443 kts | 307° |
| 2026-04-23 17:29 | 54.81985 | -3.45231 | 18336 ft | 443 kts | 307° |
| 2026-04-23 17:29 | 54.85714 | -3.53723 | 18154 ft | 440 kts | 306° |
| 2026-04-23 17:30 | 54.86933 | -3.56509 | 17744 ft | 434 kts | 306° |
| 2026-04-23 17:30 | 54.91148 | -3.66125 | 15674 ft | 421 kts | 306° |
| 2026-04-23 17:30 | 54.92907 | -3.70140 | 14858 ft | 415 kts | 306° |
| 2026-04-23 17:31 | 54.94642 | -3.74103 | 14025 ft | 409 kts | 305° |
| 2026-04-23 17:31 | 54.96347 | -3.78012 | 13116 ft | 404 kts | 306° |
| 2026-04-23 17:31 | 54.98037 | -3.81898 | 12225 ft | 399 kts | 306° |
| 2026-04-23 17:31 | 54.99698 | -3.85725 | 11340 ft | 396 kts | 306° |
| 2026-04-23 17:32 | 55.01347 | -3.89532 | 10513 ft | 392 kts | 305° |
| 2026-04-23 17:32 | 55.02984 | -3.93310 | 9646 ft | 387 kts | 305° |
| 2026-04-23 17:32 | 55.04592 | -3.97027 | 8791 ft | 383 kts | 306° |
| 2026-04-23 17:32 | 55.06167 | -4.00669 | 7991 ft | 379 kts | 305° |
| 2026-04-23 17:33 | 55.07748 | -4.04345 | 7573 ft | 378 kts | 306° |
| 2026-04-23 17:33 | 55.09320 | -4.08010 | 7416 ft | 378 kts | 305° |
| 2026-04-23 17:33 | 55.11074 | -4.11420 | 7423 ft | 380 kts | 319° |
| 2026-04-23 17:33 | 55.13336 | -4.13817 | 7417 ft | 381 kts | 335° |
| 2026-04-23 17:34 | 55.14983 | -4.14979 | 7000 ft | 376 kts | 337° |
| 2026-04-23 17:34 | 55.18208 | -4.17129 | 5764 ft | 373 kts | 339° |
| 2026-04-23 17:34 | 55.23050 | -4.20234 | 5398 ft | 374 kts | 339° |
| 2026-04-23 17:35 | 55.25494 | -4.21809 | 5435 ft | 375 kts | 339° |
| 2026-04-23 17:35 | 55.29564 | -4.24478 | 5431 ft | 376 kts | 339° |
| 2026-04-23 17:35 | 55.32048 | -4.26133 | 5433 ft | 375 kts | 338° |
| 2026-04-23 17:36 | 55.34438 | -4.27731 | 5406 ft | 370 kts | 338° |
| 2026-04-23 17:36 | 55.36768 | -4.29286 | 5311 ft | 346 kts | 339° |
| 2026-04-23 17:36 | 55.38982 | -4.30765 | 4831 ft | 335 kts | 338° |
| 2026-04-23 17:36 | 55.41039 | -4.32144 | 4520 ft | 299 kts | 338° |
| 2026-04-23 17:37 | 55.42966 | -4.32920 | 4350 ft | 271 kts | 360° |
| 2026-04-23 17:37 | 55.44665 | -4.32208 | 4097 ft | 238 kts | 30° |
| 2026-04-23 17:37 | 55.46710 | -4.27645 | 3804 ft | 267 kts | 74° |
| 2026-04-23 17:38 | 55.46896 | -4.24598 | 3799 ft | 230 kts | 97° |
| 2026-04-23 17:38 | 55.46503 | -4.22123 | 3797 ft | 193 kts | 117° |
| 2026-04-23 17:38 | 55.45795 | -4.20318 | 3795 ft | 167 kts | 134° |
| 2026-04-23 17:38 | 55.44951 | -4.19118 | 3804 ft | 148 kts | 150° |
| 2026-04-23 17:39 | 55.43923 | -4.18327 | 3815 ft | 171 kts | 165° |
| 2026-04-23 17:39 | 55.42719 | -4.18055 | 3813 ft | 177 kts | 181° |
| 2026-04-23 17:39 | 55.41499 | -4.18437 | 3812 ft | 181 kts | 198° |
| 2026-04-23 17:39 | 55.40387 | -4.19454 | 3811 ft | 182 kts | 214° |
| 2026-04-23 17:40 | 55.39494 | -4.21016 | 3810 ft | 185 kts | 231° |
| 2026-04-23 17:40 | 55.38894 | -4.23042 | 3806 ft | 186 kts | 248° |
| 2026-04-23 17:40 | 55.38690 | -4.25261 | 3806 ft | 183 kts | 267° |
| 2026-04-23 17:40 | 55.38880 | -4.27467 | 3807 ft | 185 kts | 284° |
| 2026-04-23 17:41 | 55.39441 | -4.29477 | 3809 ft | 187 kts | 303° |
| 2026-04-23 17:41 | 55.41258 | -4.32793 | 3810 ft | 186 kts | 314° |
| 2026-04-23 17:41 | 55.42150 | -4.34360 | 3550 ft | 183 kts | 312° |
| 2026-04-23 17:42 | 55.43525 | -4.38133 | 3477 ft | 186 kts | 300° |
| 2026-04-23 17:42 | 55.44208 | -4.40087 | 3036 ft | 191 kts | 301° |
| 2026-04-23 17:42 | 55.44912 | -4.42102 | 2535 ft | 192 kts | 301° |
| 2026-04-23 17:43 | 55.45585 | -4.44031 | 2195 ft | 173 kts | 301° |
| 2026-04-23 17:43 | 55.46191 | -4.45773 | 1899 ft | 160 kts | 301° |
| 2026-04-23 17:43 | 55.46787 | -4.47487 | 1651 ft | 168 kts | 301° |
| 2026-04-23 17:43 | 55.47395 | -4.49236 | 1372 ft | 167 kts | 301° |
| 2026-04-23 17:44 | 55.47997 | -4.50970 | 1109 ft | 166 kts | 301° |
| 2026-04-23 17:44 | 55.48597 | -4.52699 | 845 ft | 164 kts | 300° |
| 2026-04-23 17:44 | 55.49766 | -4.56064 | 329 ft | 157 kts | 301° |
| 2026-04-23 17:45 | 55.50302 | -4.57625 | 107 ft | 140 kts | 300° |
| 2026-04-23 17:45 | 55.51023 | -4.59706 | 42 ft | 26 kts | 301° |
| 2026-04-23 17:45 | 55.51103 | -4.59943 | 39 ft | 50 kts | 301° |
| 2026-04-23 17:46 | 55.51337 | -4.60787 | 35 ft | 21 kts | 266° |
| 2026-04-23 17:46 | 55.51330 | -4.60907 | 35 ft | 4 kts | 264° |
| 2026-04-23 17:46 | 55.51288 | -4.60997 | 35 ft | 8 kts | 198° |
| 2026-04-23 17:47 | 55.51242 | -4.61036 | 35 ft | 0 kts | 221° |
| 2026-04-23 17:47 | 55.51238 | -4.61042 | 35 ft | 3 kts | 222° |
| 2026-04-23 17:47 | 55.51231 | -4.61054 | 35 ft | 0 kts | 224° |
| 2026-04-23 17:48 | 55.51229 | -4.61057 | 34 ft | 4 kts | 224° |
| 2026-04-23 17:48 | 55.51222 | -4.61070 | 35 ft | 0 kts | 224° |